Time;durP1;ratioP1;P1;durP2;ratioP2;P2;SDS_P1;SDS_P2;PMS_P1;PMS_P2;Temp;Humidity;BMP_temperature;BMP_pressure;BME280_temperature;BME280_humidity;BME280_pressure;Samples;Min_cycle;Max_cycle;Signal;HPM_P1;HPM_P2
2023/07/10 00:01:20;;;;;;;;;4.00;4.00;;;;;24.36;48.33;101666.69;5059829;28;45241;-68
2023/07/10 00:03:45;;;;;;;;;7.00;7.00;;;;;24.31;47.61;101661.06;5078195;27;45501;-69
2023/07/10 00:06:13;;;;;;;;;18.33;15.67;;;;;24.30;47.65;101668.38;5077813;28;46442;-69
2023/07/10 00:08:39;;;;;;;;;26.67;23.00;;;;;23.83;47.04;101586.09;5078089;28;45549;-70
2023/07/10 00:11:15;;;;;;;;;49.67;33.67;;;;;24.13;46.99;101648.91;5077546;27;45403;-70
2023/07/10 00:13:41;;;;;;;;;42.33;32.67;;;;;24.09;46.81;101660.44;5078044;28;45493;-69
2023/07/10 00:16:13;;;;;;;;;44.00;34.00;;;;;24.11;47.22;101666.50;5077538;28;46848;-70
2023/07/10 00:18:38;;;;;;;;;34.67;31.33;;;;;23.48;47.46;101558.31;5077892;28;45245;-71
2023/07/10 00:21:04;;;;;;;;;27.33;25.33;;;;;24.08;47.45;101665.03;5077784;28;45499;-70
2023/07/10 00:23:29;;;;;;;;;31.67;29.00;;;;;24.07;47.54;101673.41;5077961;28;45223;-69
2023/07/10 00:25:54;;;;;;;;;36.67;32.00;;;;;24.05;47.62;101672.78;5076538;27;66630;-70
2023/07/10 00:28:21;;;;;;;;;29.67;23.00;;;;;24.01;47.38;101677.75;5077464;28;45597;-69
2023/07/10 00:30:48;;;;;;;;;21.00;18.33;;;;;24.04;47.38;101684.69;5077591;28;45367;-69
2023/07/10 00:33:16;;;;;;;;;20.00;16.33;;;;;24.02;47.45;101684.88;5077542;28;45462;-69
2023/07/10 00:35:42;;;;;;;;;42.00;31.33;;;;;24.02;47.73;101684.03;5077300;28;46700;-69
2023/07/10 00:38:20;;;;;;;;;32.33;28.00;;;;;23.96;47.58;101680.28;5077266;28;45432;-69
2023/07/10 00:40:47;;;;;;;;;49.00;39.33;;;;;24.01;47.50;101676.94;5059059;28;45230;-69
2023/07/10 00:43:31;;;;;;;;;53.33;44.00;;;;;24.00;47.48;101684.25;5059205;28;45419;-69
2023/07/10 00:46:10;;;;;;;;;49.67;39.33;;;;;24.02;47.57;101684.03;5077344;28;45715;-69
2023/07/10 00:48:42;;;;;;;;;49.67;37.67;;;;;23.70;47.53;101631.41;5077224;27;45466;-70
2023/07/10 00:51:26;;;;;;;;;48.00;39.67;;;;;24.02;47.14;101681.31;5077539;28;45611;-69
2023/07/10 00:53:54;;;;;;;;;52.00;39.67;;;;;23.92;47.29;101666.28;5077305;28;45408;-69
2023/07/10 00:56:20;;;;;;;;;38.67;33.33;;;;;23.68;47.17;101628.91;5076445;27;45277;-69
2023/07/10 00:58:49;;;;;;;;;35.00;30.33;;;;;23.97;47.30;101681.94;5058667;28;45440;-69
2023/07/10 01:01:19;;;;;;;;;28.67;22.33;;;;;23.57;47.19;101613.22;5077194;28;45451;-69
2023/07/10 01:03:46;;;;;;;;;15.33;15.33;;;;;23.85;46.67;101657.31;5059010;28;45625;-69
2023/07/10 01:06:27;;;;;;;;;17.00;14.67;;;;;23.82;46.74;101648.72;5077024;28;46695;-69
2023/07/10 01:09:02;;;;;;;;;17.33;15.67;;;;;23.92;47.17;101668.16;5058748;28;45414;-69
2023/07/10 01:11:28;;;;;;;;;14.00;14.00;;;;;23.71;47.26;101650.22;5077071;27;45427;-70
2023/07/10 01:13:56;;;;;;;;;16.67;13.33;;;;;23.83;47.23;101664.84;5077430;28;45493;-69
2023/07/10 01:16:24;;;;;;;;;13.67;13.00;;;;;23.85;47.25;101661.91;5058690;28;48646;-70
2023/07/10 01:18:51;;;;;;;;;9.67;9.33;;;;;23.76;46.93;101650.41;5076848;28;45186;-69
2023/07/10 01:21:23;;;;;;;;;11.00;9.00;;;;;23.82;46.90;101673.16;5077051;27;45440;-69
2023/07/10 01:23:49;;;;;;;;;7.00;6.33;;;;;23.67;46.73;101643.53;5058963;28;45471;-70
2023/07/10 01:26:15;;;;;;;;;8.33;7.00;;;;;23.78;47.18;101658.34;5076474;28;46322;-69
2023/07/10 01:28:40;;;;;;;;;7.67;7.67;;;;;23.73;47.03;101647.28;5076812;28;45288;-69
2023/07/10 01:31:09;;;;;;;;;9.33;8.33;;;;;23.84;46.65;101662.97;5058600;28;45689;-69
2023/07/10 01:33:40;;;;;;;;;9.00;7.33;;;;;23.87;46.92;101676.13;5077030;28;45665;-69
2023/07/10 01:36:07;;;;;;;;;8.67;7.33;;;;;23.52;46.95;101618.44;5058337;28;47883;-68
2023/07/10 01:38:48;;;;;;;;;7.33;6.00;;;;;23.88;46.88;101673.19;5076472;28;45348;-68
2023/07/10 01:41:22;;;;;;;;;5.67;5.67;;;;;23.87;46.69;101671.53;5076503;28;45374;-69
2023/07/10 01:43:48;;;;;;;;;5.00;5.00;;;;;23.87;46.74;101678.84;5077039;27;45273;-69
2023/07/10 01:46:23;;;;;;;;;6.67;5.33;;;;;23.85;47.20;101679.03;5058248;28;46481;-68
2023/07/10 01:48:53;;;;;;;;;7.00;4.00;;;;;23.81;47.00;101672.34;5076540;28;45367;-69
2023/07/10 01:51:20;;;;;;;;;7.00;6.00;;;;;23.83;46.72;101678.41;5061106;28;45423;-69
2023/07/10 01:53:46;;;;;;;;;7.67;6.33;;;;;23.85;46.86;101672.78;5062023;28;45636;-68
2023/07/10 01:56:14;;;;;;;;;7.67;5.00;;;;;23.84;47.91;101680.09;5079600;28;45332;-69
2023/07/10 01:58:40;;;;;;;;;3.00;3.00;;;;;23.86;48.42;101675.28;5079894;27;45486;-69
2023/07/10 02:01:05;;;;;;;;;5.33;4.00;;;;;23.88;49.87;101675.91;5080226;27;45220;-70
2023/07/10 02:03:30;;;;;;;;;4.00;4.00;;;;;23.84;49.91;101676.53;5080260;28;45316;-69
2023/07/10 02:05:56;;;;;;;;;4.00;4.00;;;;;23.73;50.59;101661.69;5079789;28;45498;-69
2023/07/10 02:08:21;;;;;;;;;3.00;3.00;;;;;23.83;50.94;101680.31;5061640;28;45270;-70
2023/07/10 02:10:46;;;;;;;;;6.00;4.00;;;;;23.73;50.66;101672.56;5079695;28;45447;-69
2023/07/10 02:13:12;;;;;;;;;3.67;3.67;;;;;23.68;51.76;101664.22;5078723;27;45541;-70
2023/07/10 02:15:38;;;;;;;;;5.00;4.00;;;;;23.68;51.83;101666.91;5079686;28;45487;-69
2023/07/10 02:18:03;;;;;;;;;4.00;4.00;;;;;23.79;51.76;101681.75;5079438;28;45292;-69
2023/07/10 02:20:29;;;;;;;;;5.33;4.67;;;;;23.66;51.85;101660.88;5079924;27;45309;-69
2023/07/10 02:22:54;;;;;;;;;5.00;4.00;;;;;23.70;52.34;101675.69;5079930;28;45226;-69
2023/07/10 02:25:19;;;;;;;;;4.00;4.00;;;;;23.71;52.15;101671.94;5079257;27;45567;-69
2023/07/10 02:27:45;;;;;;;;;4.00;4.00;;;;;23.66;52.10;101660.88;5079432;27;49010;-69
2023/07/10 02:30:10;;;;;;;;;6.33;4.67;;;;;23.70;52.16;101675.69;5079293;28;46876;-70
2023/07/10 02:32:35;;;;;;;;;5.00;4.33;;;;;23.72;52.65;101689.88;5079604;27;45558;-69
2023/07/10 02:35:01;;;;;;;;;7.00;5.00;;;;;23.59;52.49;101674.41;5079151;27;45686;-69
2023/07/10 02:37:26;;;;;;;;;3.00;3.00;;;;;23.56;53.02;101680.25;5079345;28;45292;-69
2023/07/10 02:39:51;;;;;;;;;6.00;5.00;;;;;23.55;52.87;101683.16;5060806;28;45330;-70
2023/07/10 02:42:17;;;;;;;;;5.33;5.33;;;;;23.57;52.68;101689.25;5079685;28;45256;-69
2023/07/10 02:44:42;;;;;;;;;5.00;4.00;;;;;23.61;52.87;101688.63;5079086;28;45264;-69
2023/07/10 02:47:07;;;;;;;;;6.67;3.67;;;;;23.58;53.20;101686.31;5078836;27;55618;-70
2023/07/10 02:49:33;;;;;;;;;4.00;4.00;;;;;23.50;52.93;101675.63;5061072;27;45243;-70
2023/07/10 02:51:58;;;;;;;;;4.00;4.00;;;;;23.54;53.33;101697.78;5079324;28;45492;-69
2023/07/10 02:54:23;;;;;;;;;4.00;3.00;;;;;23.54;53.37;101704.03;5060408;28;49660;-69
2023/07/10 02:56:49;;;;;;;;;6.33;5.00;;;;;23.49;53.49;101694.84;5078872;28;45474;-69
2023/07/10 02:59:14;;;;;;;;;3.33;3.33;;;;;23.48;53.49;101690.47;5078718;27;60000;-70
2023/07/10 03:01:39;;;;;;;;;4.33;4.33;;;;;23.45;53.83;101696.31;5077974;27;45178;-69
2023/07/10 03:04:05;;;;;;;;;4.33;3.00;;;;;23.34;53.55;101676.84;5078894;28;45562;-70
2023/07/10 03:06:31;;;;;;;;;3.67;3.67;;;;;23.48;53.29;101704.03;5078896;27;45458;-69
2023/07/10 03:08:58;;;;;;;;;6.00;5.00;;;;;23.47;53.58;101702.34;5079138;28;45252;-69
2023/07/10 03:11:24;;;;;;;;;4.33;3.00;;;;;23.06;53.24;101638.19;5078593;28;45269;-69
2023/07/10 03:13:49;;;;;;;;;4.00;4.00;;;;;23.46;53.38;101706.13;5078596;28;45500;-69
2023/07/10 03:16:16;;;;;;;;;4.33;3.67;;;;;23.41;53.36;101700.44;5078690;28;45557;-69
2023/07/10 03:18:41;;;;;;;;;4.00;4.00;;;;;23.36;53.95;101704.63;5060323;27;45371;-69
2023/07/10 03:21:08;;;;;;;;;5.00;5.00;;;;;23.34;54.02;101708.59;5078871;28;45370;-70
2023/07/10 03:23:34;;;;;;;;;5.33;3.00;;;;;22.94;53.52;101650.66;5078559;27;45994;-71
2023/07/10 03:25:59;;;;;;;;;2.00;2.00;;;;;23.34;53.59;101708.59;5078448;28;45367;-69
2023/07/10 03:28:24;;;;;;;;;4.00;4.00;;;;;23.32;54.00;101711.50;5078610;28;45149;-69
2023/07/10 03:30:50;;;;;;;;;6.33;6.33;;;;;23.26;54.12;101704.19;5078972;28;45371;-69
2023/07/10 03:33:17;;;;;;;;;4.00;4.00;;;;;23.27;53.60;101714.00;5060138;28;48251;-70
2023/07/10 03:35:48;;;;;;;;;4.00;4.00;;;;;23.28;53.80;101722.97;5078509;28;45360;-69
2023/07/10 03:38:14;;;;;;;;;4.00;4.00;;;;;23.26;53.95;101711.50;5078446;27;45303;-68
2023/07/10 03:40:48;;;;;;;;;4.00;4.00;;;;;23.23;54.08;101712.75;5078542;28;45315;-69
2023/07/10 03:43:14;;;;;;;;;5.00;5.00;;;;;23.19;53.82;101714.16;5078324;28;45671;-69
2023/07/10 03:45:41;;;;;;;;;2.67;2.67;;;;;23.14;53.56;101703.09;5060106;28;46133;-70
2023/07/10 03:48:06;;;;;;;;;3.00;3.00;;;;;23.25;53.75;101716.09;5078287;27;45269;-68
2023/07/10 03:50:34;;;;;;;;;4.33;3.00;;;;;23.22;53.95;101727.31;5078469;28;45489;-69
2023/07/10 03:52:59;;;;;;;;;4.00;4.00;;;;;23.15;53.80;101715.63;5059849;28;45939;-68
2023/07/10 03:55:24;;;;;;;;;4.00;4.00;;;;;22.87;53.46;101660.66;5077725;28;45493;-69
2023/07/10 03:57:49;;;;;;;;;4.00;4.00;;;;;23.27;53.78;101724.84;5077186;28;60789;-69
2023/07/10 04:00:15;;;;;;;;;3.00;3.00;;;;;23.25;54.17;101726.09;5078036;28;45257;-69
2023/07/10 04:02:40;;;;;;;;;5.00;4.33;;;;;23.09;53.79;101702.03;5077908;27;46678;-69
2023/07/10 04:05:06;;;;;;;;;4.00;4.00;;;;;23.14;53.92;101707.69;5077834;28;45275;-69
2023/07/10 04:07:31;;;;;;;;;5.00;4.33;;;;;23.33;54.01;101739.47;5059769;28;45472;-70
2023/07/10 04:09:56;;;;;;;;;3.00;3.00;;;;;23.34;53.38;101730.28;5059178;28;45417;-71
2023/07/10 04:12:22;;;;;;;;;6.33;6.00;;;;;23.35;53.20;101743.66;5076661;28;58394;-69
2023/07/10 04:14:47;;;;;;;;;4.00;4.00;;;;;23.33;53.18;101734.88;5077631;27;45427;-70
2023/07/10 04:17:14;;;;;;;;;7.00;4.00;;;;;23.35;53.78;101735.50;5059243;28;49866;-69
2023/07/10 04:19:40;;;;;;;;;5.67;3.33;;;;;23.35;53.64;101740.94;5078113;28;45291;-69
2023/07/10 04:22:05;;;;;;;;;3.00;3.00;;;;;23.37;53.36;101740.72;5077622;28;46507;-69
2023/07/10 04:24:31;;;;;;;;;3.33;3.00;;;;;23.36;53.39;101750.75;5077525;28;45225;-69
2023/07/10 04:26:56;;;;;;;;;4.33;2.00;;;;;23.40;53.47;101751.16;5077651;28;45444;-70
2023/07/10 04:29:21;;;;;;;;;5.00;4.00;;;;;23.41;53.43;101757.44;5078298;28;45283;-69
2023/07/10 04:31:47;;;;;;;;;2.67;2.67;;;;;23.38;53.10;101759.53;5077324;27;45436;-68
2023/07/10 04:34:12;;;;;;;;;4.00;3.00;;;;;23.41;52.96;101762.88;5077589;28;45522;-69
2023/07/10 04:36:38;;;;;;;;;3.33;3.33;;;;;23.34;52.93;101750.13;5077809;28;45513;-71
2023/07/10 04:39:06;;;;;;;;;5.25;3.75;;;;;23.37;53.41;101757.84;5077388;28;45357;-71
2023/07/10 04:41:31;;;;;;;;;5.00;3.67;;;;;23.14;53.14;101713.94;5077147;27;45850;-70
2023/07/10 04:43:56;;;;;;;;;3.00;3.00;;;;;23.41;53.44;101773.72;5077302;28;45257;-71
2023/07/10 04:46:22;;;;;;;;;2.00;2.00;;;;;23.43;52.86;101777.09;5077360;27;45477;-70
2023/07/10 04:48:47;;;;;;;;;3.00;3.00;;;;;23.15;53.27;101715.63;5059268;28;45240;-69
2023/07/10 04:51:15;;;;;;;;;4.00;3.00;;;;;23.41;53.51;101763.69;5058428;28;60569;-70
2023/07/10 04:53:41;;;;;;;;;2.00;2.00;;;;;23.42;53.58;101759.94;5077369;28;45253;-71
2023/07/10 04:56:10;;;;;;;;;6.00;4.33;;;;;23.53;53.17;101777.53;5076825;27;45279;-69
2023/07/10 04:58:54;;;;;;;;;2.67;2.67;;;;;23.58;53.43;101769.63;5076007;28;45567;-70
2023/07/10 05:01:23;;;;;;;;;3.67;3.67;;;;;23.59;53.22;101768.59;5076923;28;46591;-69
2023/07/10 05:03:48;;;;;;;;;2.67;2.67;;;;;23.67;52.97;101779.28;5076929;27;45332;-69
2023/07/10 05:06:15;;;;;;;;;4.00;4.00;;;;;23.71;52.77;101771.56;5077100;28;45284;-71
2023/07/10 05:08:41;;;;;;;;;3.00;3.00;;;;;23.71;52.66;101774.28;5077413;28;45360;-68
2023/07/10 05:11:07;;;;;;;;;2.00;2.00;;;;;23.42;52.89;101723.81;5076302;27;46516;-69
2023/07/10 05:13:32;;;;;;;;;4.33;4.33;;;;;23.81;52.09;101772.81;5076854;28;45289;-68
2023/07/10 05:15:59;;;;;;;;;3.67;3.67;;;;;23.84;52.46;101771.59;5077031;27;45348;-68
2023/07/10 05:18:29;;;;;;;;;3.00;3.00;;;;;23.86;52.36;101762.19;5077537;28;45407;-69
2023/07/10 05:20:58;;;;;;;;;4.00;4.00;;;;;23.90;52.12;101777.03;5076686;28;47475;-68
2023/07/10 05:23:23;;;;;;;;;4.67;3.33;;;;;23.81;52.24;101759.22;5076966;28;45370;-68
2023/07/10 05:26:02;;;;;;;;;5.00;3.67;;;;;23.90;52.06;101774.31;5071907;28;45478;-69
2023/07/10 05:28:28;;;;;;;;;5.00;4.00;;;;;23.87;52.27;101782.88;5079707;28;45275;-70
2023/07/10 05:30:56;;;;;;;;;3.00;3.00;;;;;23.84;51.78;101766.16;5079125;28;46092;-68
2023/07/10 05:33:23;;;;;;;;;10.00;9.00;;;;;23.90;51.82;101768.03;5061443;28;45421;-70
2023/07/10 05:35:51;;;;;;;;;5.00;4.00;;;;;23.96;51.77;101775.34;5078549;27;45352;-69
2023/07/10 05:38:16;;;;;;;;;3.67;2.33;;;;;23.91;51.31;101765.13;5080183;27;45514;-68
2023/07/10 05:40:42;;;;;;;;;2.33;2.33;;;;;23.95;50.96;101766.38;5079635;27;46389;-69
2023/07/10 05:43:07;;;;;;;;;4.67;4.67;;;;;23.98;50.62;101771.38;5061565;28;45233;-70
2023/07/10 05:45:33;;;;;;;;;4.00;3.67;;;;;24.08;51.28;101776.41;5078315;28;45408;-70
2023/07/10 05:47:58;;;;;;;;;5.00;3.33;;;;;23.79;50.69;101712.44;5080135;28;45332;-69
2023/07/10 05:50:23;;;;;;;;;5.00;3.00;;;;;23.89;51.21;101733.78;5079163;28;55839;-68
2023/07/10 05:52:48;;;;;;;;;4.00;4.00;;;;;24.23;51.78;101778.94;5079614;28;46190;-69
2023/07/10 05:55:14;;;;;;;;;4.67;4.67;;;;;24.26;51.36;101775.81;5077094;28;45778;-69
2023/07/10 05:57:39;;;;;;;;;6.33;5.33;;;;;24.38;50.54;101771.41;5078743;28;45587;-73
2023/07/10 06:00:05;;;;;;;;;5.00;3.00;;;;;24.42;50.32;101774.53;5076991;28;46497;-68
2023/07/10 06:02:31;;;;;;;;;4.67;2.33;;;;;24.48;50.37;101777.28;5060311;28;45466;-69
2023/07/10 06:04:56;;;;;;;;;3.00;3.00;;;;;24.50;49.83;101753.44;5078612;28;45493;-69
2023/07/10 06:07:21;;;;;;;;;5.00;3.67;;;;;25.09;48.97;101763.34;5079319;28;45480;-69
2023/07/10 06:09:47;;;;;;;;;2.00;2.00;;;;;25.72;46.89;101765.38;5079110;28;46590;-68
2023/07/10 06:12:12;;;;;;;;;4.33;3.33;;;;;26.23;45.98;101753.44;5079235;27;53300;-68
2023/07/10 06:14:37;;;;;;;;;4.00;4.00;;;;;26.91;44.40;101776.09;5079277;28;47569;-68
2023/07/10 06:17:03;;;;;;;;;5.33;3.33;;;;;27.29;43.44;101731.34;5079082;28;53978;-71
2023/07/10 06:19:28;;;;;;;;;2.33;2.33;;;;;27.95;43.10;101774.09;5077749;27;45841;-68
2023/07/10 06:22:05;;;;;;;;;2.33;2.33;;;;;28.02;45.28;101774.00;5079377;28;45318;-68
2023/07/10 06:24:30;;;;;;;;;3.00;3.00;;;;;28.00;42.50;101770.66;5079191;28;45523;-68
2023/07/10 06:26:56;;;;;;;;;3.00;3.00;;;;;27.90;42.18;101765.78;5079051;28;45454;-68
2023/07/10 06:29:21;;;;;;;;;6.67;4.00;;;;;27.89;42.55;101775.06;5059664;28;51372;-69
2023/07/10 06:31:46;;;;;;;;;5.00;2.00;;;;;27.80;42.60;101755.41;5079193;28;45587;-67
2023/07/10 06:34:12;;;;;;;;;3.33;3.00;;;;;27.89;42.23;101764.13;5079321;27;45494;-70
2023/07/10 06:36:37;;;;;;;;;6.33;5.00;;;;;27.60;42.44;101719.31;5077922;27;45232;-69
2023/07/10 06:39:04;;;;;;;;;3.33;3.33;;;;;27.86;42.13;101759.13;5078929;27;45582;-71
2023/07/10 06:41:30;;;;;;;;;5.00;4.00;;;;;27.81;41.94;101756.25;5079129;27;45494;-69
2023/07/10 06:43:56;;;;;;;;;3.00;3.00;;;;;27.85;41.66;101761.03;5076083;28;45551;-69
2023/07/10 06:46:22;;;;;;;;;3.33;2.33;;;;;27.96;42.00;101770.31;5079179;28;45237;-70
2023/07/10 06:48:47;;;;;;;;;3.00;3.00;;;;;27.95;41.44;101762.34;5078814;28;45786;-70
2023/07/10 06:51:13;;;;;;;;;4.00;4.00;;;;;28.00;41.33;101760.56;5077249;27;60480;-68
2023/07/10 06:53:38;;;;;;;;;3.67;2.00;;;;;27.97;41.35;101763.75;5079701;27;45456;-73
2023/07/10 06:56:05;;;;;;;;;3.00;3.00;;;;;28.04;41.91;101769.97;5080717;27;45521;-69
2023/07/10 06:58:31;;;;;;;;;4.00;4.00;;;;;28.10;41.63;101769.03;5082548;27;45735;-69
2023/07/10 07:00:56;;;;;;;;;3.67;3.67;;;;;28.15;41.48;101769.16;5076123;27;45517;-69
2023/07/10 07:03:23;;;;;;;;;4.00;3.00;;;;;28.21;40.92;101756.44;5076894;28;45337;-71
2023/07/10 07:05:48;;;;;;;;;5.00;5.00;;;;;28.33;41.14;101759.22;5076157;27;46116;-71
2023/07/10 07:08:14;;;;;;;;;4.00;4.00;;;;;28.22;40.61;101729.91;5077666;28;45705;-69
2023/07/10 07:10:42;;;;;;;;;3.67;3.67;;;;;28.48;40.98;101763.16;5077822;28;45443;-68
2023/07/10 07:13:08;;;;;;;;;2.33;2.00;;;;;28.35;40.57;101743.38;5075416;28;45526;-69
2023/07/10 07:15:33;;;;;;;;;5.67;5.00;;;;;28.51;40.67;101767.31;5087098;27;45527;-69
2023/07/10 07:17:59;;;;;;;;;3.00;3.00;;;;;28.57;40.76;101771.81;5098942;27;46049;-71
2023/07/10 07:20:24;;;;;;;;;3.00;3.00;;;;;28.60;39.81;101760.38;5098984;27;45380;-71
2023/07/10 07:22:50;;;;;;;;;3.00;2.00;;;;;28.51;40.24;101739.13;5088847;27;45389;-73
2023/07/10 07:25:15;;;;;;;;;2.00;2.00;;;;;28.58;39.67;101743.38;5066309;27;45490;-70
2023/07/10 07:27:41;;;;;;;;;2.67;2.67;;;;;28.59;38.64;101739.56;5095404;27;45632;-71
2023/07/10 07:30:07;;;;;;;;;2.67;2.67;;;;;28.69;39.18;101760.88;5092850;27;45332;-70
2023/07/10 07:32:32;;;;;;;;;4.33;3.00;;;;;28.71;38.99;101753.25;5080467;27;45439;-70
2023/07/10 07:34:58;;;;;;;;;3.67;2.00;;;;;28.75;39.13;101752.53;5077244;27;45487;-76
2023/07/10 07:37:23;;;;;;;;;3.67;2.00;;;;;28.83;38.84;101758.69;5076430;28;46628;-75
2023/07/10 07:39:49;;;;;;;;;3.00;2.00;;;;;28.63;37.72;101724.34;5059516;28;45809;-72
2023/07/10 07:42:14;;;;;;;;;5.00;4.00;;;;;28.81;38.36;101744.41;5077062;27;45486;-69
2023/07/10 07:44:41;;;;;;;;;2.00;1.00;;;;;28.94;37.83;101760.63;5078580;27;45221;-71
2023/07/10 07:47:07;;;;;;;;;1.00;1.00;;;;;28.97;38.75;101749.19;5085714;27;45916;-69
2023/07/10 07:49:32;;;;;;;;;2.00;2.00;;;;;29.02;38.44;101741.06;5072229;27;46241;-69
2023/07/10 07:51:58;;;;;;;;;2.00;2.00;;;;;29.14;38.53;101741.03;5076699;28;45475;-68
2023/07/10 07:54:23;;;;;;;;;3.00;3.00;;;;;29.21;37.89;101741.72;5077766;28;45585;-69
2023/07/10 07:56:49;;;;;;;;;2.75;2.75;;;;;29.23;37.31;101743.13;5076056;28;47498;-68
2023/07/10 07:59:16;;;;;;;;;2.00;1.33;;;;;29.24;36.97;101742.09;5059349;28;45354;-69
2023/07/10 08:01:41;;;;;;;;;1.00;1.00;;;;;29.27;36.38;101744.34;5057182;28;45494;-69
2023/07/10 08:04:06;;;;;;;;;3.33;3.33;;;;;29.33;36.88;101753.47;5078292;27;45552;-68
2023/07/10 08:06:33;;;;;;;;;3.67;2.67;;;;;29.36;36.38;101742.03;5077488;28;48197;-69
2023/07/10 08:09:00;;;;;;;;;4.00;2.33;;;;;29.39;36.10;101739.63;5077886;27;45551;-69
2023/07/10 08:11:26;;;;;;;;;2.00;2.00;;;;;29.32;36.13;101722.50;5077664;28;45515;-69
2023/07/10 08:13:52;;;;;;;;;5.00;3.00;;;;;29.28;35.59;101721.34;5077203;28;45310;-69
2023/07/10 08:16:18;;;;;;;;;0.00;0.00;;;;;29.27;35.13;101716.94;5076802;28;45923;-70
2023/07/10 08:18:44;;;;;;;;;2.67;2.00;;;;;29.11;35.46;101692.25;5082845;27;45475;-69
2023/07/10 08:21:12;;;;;;;;;4.33;3.00;;;;;29.32;35.19;101736.19;5059089;28;45347;-69
2023/07/10 08:23:38;;;;;;;;;2.33;2.00;;;;;29.33;35.55;101732.38;5075301;27;45499;-69
2023/07/10 08:26:04;;;;;;;;;1.00;1.00;;;;;29.36;34.97;101731.91;5074996;28;46387;-72
2023/07/10 08:28:30;;;;;;;;;2.67;1.00;;;;;29.13;34.64;101699.13;5058995;27;45374;-70
2023/07/10 08:30:55;;;;;;;;;2.00;1.00;;;;;29.30;34.34;101721.94;5077570;27;45450;-68
2023/07/10 08:33:21;;;;;;;;;1.67;1.67;;;;;29.44;34.34;101743.56;5075695;27;45261;-71
2023/07/10 08:35:57;;;;;;;;;3.67;2.67;;;;;29.32;34.08;101719.78;5053713;28;48111;-69
2023/07/10 08:38:22;;;;;;;;;2.00;1.00;;;;;29.43;33.69;101730.91;5077296;28;45272;-69
2023/07/10 08:40:52;;;;;;;;;1.00;1.00;;;;;29.50;33.19;101739.84;5077142;28;45250;-70
2023/07/10 08:43:28;;;;;;;;;1.00;0.67;;;;;29.54;33.62;101743.75;5057968;28;45626;-70
2023/07/10 08:46:23;;;;;;;;;2.33;2.00;;;;;29.60;34.52;101731.81;5058454;27;48017;-70
2023/07/10 08:48:54;;;;;;;;;1.00;1.00;;;;;29.59;32.32;101730.97;5058198;28;45659;-70
2023/07/10 08:51:19;;;;;;;;;0.00;0.00;;;;;29.28;33.04;101672.03;5076259;28;45745;-70
2023/07/10 08:53:50;;;;;;;;;1.00;1.00;;;;;29.41;33.37;101702.94;5057169;28;45337;-75
2023/07/10 08:56:33;;;;;;;;;2.25;1.25;;;;;29.19;33.46;101665.28;5074156;27;47170;-71
2023/07/10 08:59:21;;;;;;;;;9.00;6.33;;;;;29.18;33.14;101674.56;5097893;27;46671;-69
2023/07/10 09:01:48;;;;;;;;;1.00;0.50;;;;;29.33;33.15;101695.94;5072711;27;45528;-70
2023/07/10 09:04:16;;;;;;;;;1.00;1.00;;;;;29.52;32.98;101729.47;5079211;28;45540;-70
2023/07/10 09:06:56;;;;;;;;;1.00;1.00;;;;;29.59;32.78;101732.88;5080416;27;46955;-70
2023/07/10 09:09:40;;;;;;;;;1.00;1.00;;;;;29.57;31.52;101724.09;5062123;28;45572;-68
2023/07/10 09:12:29;;;;;;;;;1.67;1.67;;;;;29.60;32.62;101723.59;5056008;28;45323;-73
2023/07/10 09:14:59;;;;;;;;;1.00;1.00;;;;;29.63;32.38;101723.09;5067061;27;45553;-70
2023/07/10 09:17:33;;;;;;;;;2.00;1.00;;;;;29.62;32.26;101725.00;5062028;27;47584;-70
2023/07/10 09:20:03;;;;;;;;;1.00;1.00;;;;;29.18;32.75;101666.34;5062100;28;45584;-70
2023/07/10 09:22:31;;;;;;;;;2.00;1.00;;;;;29.38;32.71;101724.25;5062197;28;45443;-70
2023/07/10 09:24:57;;;;;;;;;0.67;0.67;;;;;29.10;32.22;101671.41;5061960;28;45633;-69
2023/07/10 09:27:23;;;;;;;;;2.00;0.00;;;;;29.43;31.65;101720.78;5080144;28;46395;-69
2023/07/10 09:29:52;;;;;;;;;1.67;0.67;;;;;29.42;31.79;101730.06;5080523;27;45357;-68
2023/07/10 09:32:19;;;;;;;;;2.33;2.33;;;;;29.35;32.65;101724.75;5080016;27;45301;-69
2023/07/10 09:34:49;;;;;;;;;2.67;0.33;;;;;29.37;32.88;101733.56;5080328;28;45353;-69
2023/07/10 09:37:18;;;;;;;;;1.00;1.00;;;;;29.38;32.27;101727.00;5061660;28;48532;-69
2023/07/10 09:39:43;;;;;;;;;1.33;1.33;;;;;29.40;32.24;101715.78;5079970;27;45621;-70
2023/07/10 09:42:21;;;;;;;;;1.00;1.00;;;;;29.38;31.52;101718.78;5079970;27;46463;-70
2023/07/10 09:44:50;;;;;;;;;1.00;1.00;;;;;29.33;31.50;101709.63;5080372;27;45478;-70
2023/07/10 09:47:17;;;;;;;;;2.00;1.00;;;;;29.38;31.82;101717.94;5061617;28;47901;-70
2023/07/10 09:49:58;;;;;;;;;1.00;1.00;;;;;29.03;31.75;101655.09;5079874;27;45214;-69
2023/07/10 09:52:27;;;;;;;;;6.33;6.00;;;;;29.04;32.01;101640.38;5080017;27;45280;-70
2023/07/10 09:55:00;;;;;;;;;0.75;0.75;;;;;29.51;31.92;101711.38;5079817;28;45167;-68
2023/07/10 09:57:26;;;;;;;;;2.00;2.00;;;;;29.50;32.48;101709.72;5079518;28;46479;-71
2023/07/10 09:59:56;;;;;;;;;1.00;1.00;;;;;29.58;31.69;101712.88;5079735;28;45324;-70
2023/07/10 10:02:27;;;;;;;;;12.67;12.00;;;;;29.60;31.96;101729.06;5061375;28;45384;-69
2023/07/10 10:05:10;;;;;;;;;1.33;1.33;;;;;29.65;31.89;101723.69;5079957;28;45250;-70
2023/07/10 10:07:47;;;;;;;;;1.67;1.00;;;;;29.60;31.85;101704.41;5079632;28;46146;-70
2023/07/10 10:10:21;;;;;;;;;2.00;1.00;;;;;29.69;30.13;101724.84;5060435;28;45271;-72
2023/07/10 10:12:56;;;;;;;;;2.00;1.00;;;;;29.58;30.96;101712.03;5061617;28;45251;-70
2023/07/10 10:15:36;;;;;;;;;2.00;2.00;;;;;29.47;30.87;101699.25;5079723;27;45359;-69
2023/07/10 10:18:04;;;;;;;;;0.33;0.33;;;;;29.54;31.45;101716.34;5078939;28;46219;-69
2023/07/10 10:20:33;;;;;;;;;1.00;1.00;;;;;29.56;30.19;101711.47;5060859;28;46304;-70
2023/07/10 10:22:59;;;;;;;;;2.33;1.00;;;;;29.21;30.09;101679.56;5061277;28;45368;-70
2023/07/10 10:25:35;;;;;;;;;2.00;2.00;;;;;29.45;30.40;101701.38;5079479;27;45316;-71
2023/07/10 10:28:20;;;;;;;;;1.33;1.33;;;;;29.47;30.03;101718.44;5060663;27;46433;-70
2023/07/10 10:31:01;;;;;;;;;2.00;2.00;;;;;29.48;30.00;101718.19;5079175;28;45338;-71
2023/07/10 10:33:45;;;;;;;;;2.33;2.33;;;;;29.29;31.00;101681.09;5060760;28;45382;-71
2023/07/10 10:36:22;;;;;;;;;1.00;1.00;;;;;29.44;30.83;101713.41;5079179;27;45285;-69
2023/07/10 10:39:01;;;;;;;;;2.00;2.00;;;;;29.41;31.09;101698.28;5079250;27;45721;-70
2023/07/10 10:41:37;;;;;;;;;3.00;3.00;;;;;28.99;30.75;101630.13;5078833;28;45350;-70
2023/07/10 10:44:18;;;;;;;;;1.00;1.00;;;;;29.39;30.60;101692.22;5078990;27;45334;-69
2023/07/10 10:46:54;;;;;;;;;0.00;0.00;;;;;29.34;30.50;101698.44;5079318;27;45417;-71
2023/07/10 10:49:54;;;;;;;;;1.00;1.00;;;;;29.36;30.71;101700.94;5060513;28;48732;-71
2023/07/10 10:52:25;;;;;;;;;2.67;2.67;;;;;29.23;28.94;101693.84;5060717;28;45329;-69
2023/07/10 10:55:08;;;;;;;;;2.00;1.00;;;;;29.25;29.61;101699.94;5078592;28;45471;-69
2023/07/10 10:58:12;;;;;;;;;2.00;2.00;;;;;29.20;30.03;101705.28;5078284;27;45596;-69
2023/07/10 11:01:18;;;;;;;;;3.33;3.33;;;;;29.24;30.39;101701.00;5075110;27;45817;-70
2023/07/10 11:03:49;;;;;;;;;4.33;3.67;;;;;28.69;29.96;101610.34;5078363;27;45371;-69
2023/07/10 11:06:29;;;;;;;;;1.67;1.67;;;;;29.19;29.89;101702.78;5060687;28;45349;-71
2023/07/10 11:08:59;;;;;;;;;4.00;4.00;;;;;29.06;30.87;101677.38;5060713;28;45505;-70
2023/07/10 11:11:34;;;;;;;;;3.33;2.00;;;;;29.17;30.63;101699.47;5059762;28;47030;-70
2023/07/10 11:14:06;;;;;;;;;1.00;1.00;;;;;29.21;30.66;101695.97;5078583;27;45294;-70
2023/07/10 11:16:33;;;;;;;;;2.00;1.00;;;;;29.19;31.51;101686.34;5060614;28;45350;-70
2023/07/10 11:19:02;;;;;;;;;2.00;2.00;;;;;29.14;30.17;101689.84;5060764;28;45523;-72
2023/07/10 11:21:28;;;;;;;;;2.00;1.33;;;;;29.03;29.74;101666.06;5060257;28;47641;-70
2023/07/10 11:23:54;;;;;;;;;1.33;1.00;;;;;29.16;29.83;101676.72;5077083;28;45340;-70
2023/07/10 11:26:21;;;;;;;;;3.00;3.00;;;;;29.19;29.88;101673.50;5078394;27;45319;-69
2023/07/10 11:28:56;;;;;;;;;1.00;1.00;;;;;29.21;29.75;101668.59;5060440;28;45505;-70
2023/07/10 11:31:41;;;;;;;;;1.25;1.25;;;;;29.24;29.52;101654.44;5059808;28;45868;-70